sensor_id;sensor_type;location;lat;lon;timestamp;P1;durP1;ratioP1;P2;durP2;ratioP2
66163;SDS011;52962;51.088;3.096;2023-06-24T00:00:00;1.83;;;1.73;;
66163;SDS011;52962;51.088;3.096;2023-06-24T00:02:33;1.60;;;1.50;;
66163;SDS011;52962;51.088;3.096;2023-06-24T00:05:05;1.02;;;1.02;;
66163;SDS011;52962;51.088;3.096;2023-06-24T00:07:35;1.83;;;1.42;;
66163;SDS011;52962;51.088;3.096;2023-06-24T00:10:11;1.42;;;1.38;;
66163;SDS011;52962;51.088;3.096;2023-06-24T00:12:39;1.15;;;0.98;;
66163;SDS011;52962;51.088;3.096;2023-06-24T00:15:08;1.52;;;1.30;;
66163;SDS011;52962;51.088;3.096;2023-06-24T00:17:37;1.33;;;1.17;;
66163;SDS011;52962;51.088;3.096;2023-06-24T00:20:07;1.40;;;1.17;;
66163;SDS011;52962;51.088;3.096;2023-06-24T00:22:37;1.50;;;1.40;;
66163;SDS011;52962;51.088;3.096;2023-06-24T00:25:11;1.23;;;1.13;;
66163;SDS011;52962;51.088;3.096;2023-06-24T00:27:40;1.63;;;1.52;;
66163;SDS011;52962;51.088;3.096;2023-06-24T00:30:09;1.25;;;1.15;;
66163;SDS011;52962;51.088;3.096;2023-06-24T00:32:37;1.55;;;1.45;;
66163;SDS011;52962;51.088;3.096;2023-06-24T00:37:37;1.17;;;1.15;;
66163;SDS011;52962;51.088;3.096;2023-06-24T00:40:05;1.73;;;1.63;;
66163;SDS011;52962;51.088;3.096;2023-06-24T00:42:37;1.90;;;1.80;;
66163;SDS011;52962;51.088;3.096;2023-06-24T00:45:06;1.13;;;1.05;;
66163;SDS011;52962;51.088;3.096;2023-06-24T00:47:37;1.52;;;1.42;;
66163;SDS011;52962;51.088;3.096;2023-06-24T00:50:08;1.20;;;1.17;;
66163;SDS011;52962;51.088;3.096;2023-06-24T00:52:38;2.42;;;1.90;;
66163;SDS011;52962;51.088;3.096;2023-06-24T00:55:09;2.25;;;1.55;;
66163;SDS011;52962;51.088;3.096;2023-06-24T00:57:39;1.65;;;1.55;;
66163;SDS011;52962;51.088;3.096;2023-06-24T01:00:09;1.98;;;1.58;;
66163;SDS011;52962;51.088;3.096;2023-06-24T01:02:41;1.17;;;1.05;;
66163;SDS011;52962;51.088;3.096;2023-06-24T01:05:11;1.13;;;1.02;;
66163;SDS011;52962;51.088;3.096;2023-06-24T01:07:41;2.22;;;1.77;;
66163;SDS011;52962;51.088;3.096;2023-06-24T01:10:12;1.65;;;1.55;;
66163;SDS011;52962;51.088;3.096;2023-06-24T01:12:40;1.60;;;1.50;;
66163;SDS011;52962;51.088;3.096;2023-06-24T01:15:10;1.70;;;1.42;;
66163;SDS011;52962;51.088;3.096;2023-06-24T01:17:41;1.52;;;1.42;;
66163;SDS011;52962;51.088;3.096;2023-06-24T01:20:17;1.67;;;1.40;;
66163;SDS011;52962;51.088;3.096;2023-06-24T01:23:11;1.63;;;1.52;;
66163;SDS011;52962;51.088;3.096;2023-06-24T01:29:06;1.50;;;1.35;;
66163;SDS011;52962;51.088;3.096;2023-06-24T01:31:51;2.08;;;1.58;;
66163;SDS011;52962;51.088;3.096;2023-06-24T01:34:28;1.48;;;1.20;;
66163;SDS011;52962;51.088;3.096;2023-06-24T01:37:05;1.80;;;1.70;;
66163;SDS011;52962;51.088;3.096;2023-06-24T01:39:41;2.17;;;2.00;;
66163;SDS011;52962;51.088;3.096;2023-06-24T01:44:43;1.30;;;1.20;;
66163;SDS011;52962;51.088;3.096;2023-06-24T01:47:18;1.33;;;1.23;;
66163;SDS011;52962;51.088;3.096;2023-06-24T01:49:49;1.50;;;1.40;;
66163;SDS011;52962;51.088;3.096;2023-06-24T01:52:21;1.88;;;1.77;;
66163;SDS011;52962;51.088;3.096;2023-06-24T01:54:51;2.15;;;1.95;;
66163;SDS011;52962;51.088;3.096;2023-06-24T01:57:20;1.45;;;1.35;;
66163;SDS011;52962;51.088;3.096;2023-06-24T01:59:51;1.90;;;1.55;;
66163;SDS011;52962;51.088;3.096;2023-06-24T02:02:22;1.63;;;1.52;;
66163;SDS011;52962;51.088;3.096;2023-06-24T02:04:53;1.33;;;1.23;;
66163;SDS011;52962;51.088;3.096;2023-06-24T02:07:23;2.20;;;2.08;;
66163;SDS011;52962;51.088;3.096;2023-06-24T02:09:53;1.55;;;1.38;;
66163;SDS011;52962;51.088;3.096;2023-06-24T02:12:22;1.25;;;1.17;;
66163;SDS011;52962;51.088;3.096;2023-06-24T02:14:54;1.45;;;1.35;;
66163;SDS011;52962;51.088;3.096;2023-06-24T02:17:25;1.90;;;1.80;;
66163;SDS011;52962;51.088;3.096;2023-06-24T02:19:56;1.60;;;1.50;;
66163;SDS011;52962;51.088;3.096;2023-06-24T02:22:26;1.90;;;1.80;;
66163;SDS011;52962;51.088;3.096;2023-06-24T02:24:55;1.70;;;1.60;;
66163;SDS011;52962;51.088;3.096;2023-06-24T02:27:25;2.65;;;2.00;;
66163;SDS011;52962;51.088;3.096;2023-06-24T02:29:54;1.42;;;1.33;;
66163;SDS011;52962;51.088;3.096;2023-06-24T02:32:26;1.85;;;1.75;;
66163;SDS011;52962;51.088;3.096;2023-06-24T02:34:54;2.13;;;1.60;;
66163;SDS011;52962;51.088;3.096;2023-06-24T02:37:27;1.30;;;1.20;;
66163;SDS011;52962;51.088;3.096;2023-06-24T02:39:56;1.70;;;1.60;;
66163;SDS011;52962;51.088;3.096;2023-06-24T02:42:25;2.05;;;1.88;;
66163;SDS011;52962;51.088;3.096;2023-06-24T02:47:21;1.42;;;1.33;;
66163;SDS011;52962;51.088;3.096;2023-06-24T02:49:51;1.98;;;1.83;;
66163;SDS011;52962;51.088;3.096;2023-06-24T02:52:23;1.77;;;1.52;;
66163;SDS011;52962;51.088;3.096;2023-06-24T02:54:55;2.00;;;1.48;;
66163;SDS011;52962;51.088;3.096;2023-06-24T02:57:45;3.60;;;1.95;;
66163;SDS011;52962;51.088;3.096;2023-06-24T03:00:23;2.33;;;2.13;;
66163;SDS011;52962;51.088;3.096;2023-06-24T03:03:12;2.63;;;2.15;;
66163;SDS011;52962;51.088;3.096;2023-06-24T03:05:51;2.60;;;2.17;;
66163;SDS011;52962;51.088;3.096;2023-06-24T03:08:21;2.42;;;2.22;;
66163;SDS011;52962;51.088;3.096;2023-06-24T03:10:50;1.55;;;1.45;;
66163;SDS011;52962;51.088;3.096;2023-06-24T03:13:23;1.65;;;1.55;;
66163;SDS011;52962;51.088;3.096;2023-06-24T03:16:10;2.15;;;1.63;;
66163;SDS011;52962;51.088;3.096;2023-06-24T03:18:47;2.00;;;1.88;;
66163;SDS011;52962;51.088;3.096;2023-06-24T03:21:17;2.35;;;2.10;;
66163;SDS011;52962;51.088;3.096;2023-06-24T03:23:46;1.45;;;1.35;;
66163;SDS011;52962;51.088;3.096;2023-06-24T03:26:15;1.73;;;1.63;;
66163;SDS011;52962;51.088;3.096;2023-06-24T03:31:15;1.60;;;1.50;;
66163;SDS011;52962;51.088;3.096;2023-06-24T03:33:44;4.15;;;1.60;;
66163;SDS011;52962;51.088;3.096;2023-06-24T03:36:14;1.80;;;1.65;;
66163;SDS011;52962;51.088;3.096;2023-06-24T03:38:44;2.38;;;1.95;;
66163;SDS011;52962;51.088;3.096;2023-06-24T03:41:13;1.95;;;1.85;;
66163;SDS011;52962;51.088;3.096;2023-06-24T03:43:41;2.10;;;1.73;;
66163;SDS011;52962;51.088;3.096;2023-06-24T03:46:11;2.35;;;1.92;;
66163;SDS011;52962;51.088;3.096;2023-06-24T03:48:39;1.98;;;1.88;;
66163;SDS011;52962;51.088;3.096;2023-06-24T03:51:08;2.55;;;1.80;;
66163;SDS011;52962;51.088;3.096;2023-06-24T03:53:37;4.38;;;2.17;;
66163;SDS011;52962;51.088;3.096;2023-06-24T03:58:34;3.88;;;1.80;;
66163;SDS011;52962;51.088;3.096;2023-06-24T04:03:30;1.83;;;1.73;;
66163;SDS011;52962;51.088;3.096;2023-06-24T04:05:59;2.45;;;1.80;;
66163;SDS011;52962;51.088;3.096;2023-06-24T04:08:29;2.30;;;2.08;;
66163;SDS011;52962;51.088;3.096;2023-06-24T04:10:59;2.13;;;1.92;;
66163;SDS011;52962;51.088;3.096;2023-06-24T04:13:31;2.58;;;1.77;;
66163;SDS011;52962;51.088;3.096;2023-06-24T04:16:01;2.55;;;2.35;;
66163;SDS011;52962;51.088;3.096;2023-06-24T04:18:29;1.58;;;1.35;;
66163;SDS011;52962;51.088;3.096;2023-06-24T04:20:58;1.73;;;1.63;;
66163;SDS011;52962;51.088;3.096;2023-06-24T04:23:27;2.90;;;2.10;;
66163;SDS011;52962;51.088;3.096;2023-06-24T04:25:55;2.03;;;1.67;;
66163;SDS011;52962;51.088;3.096;2023-06-24T04:30:53;2.30;;;2.13;;
66163;SDS011;52962;51.088;3.096;2023-06-24T04:33:21;5.72;;;2.30;;
66163;SDS011;52962;51.088;3.096;2023-06-24T04:35:50;2.33;;;2.13;;
66163;SDS011;52962;51.088;3.096;2023-06-24T04:38:20;2.40;;;2.00;;
66163;SDS011;52962;51.088;3.096;2023-06-24T04:40:49;2.75;;;2.20;;
66163;SDS011;52962;51.088;3.096;2023-06-24T04:45:46;1.95;;;1.73;;
66163;SDS011;52962;51.088;3.096;2023-06-24T04:48:15;1.85;;;1.67;;
66163;SDS011;52962;51.088;3.096;2023-06-24T04:50:43;1.98;;;1.88;;
66163;SDS011;52962;51.088;3.096;2023-06-24T04:53:11;2.88;;;2.55;;
66163;SDS011;52962;51.088;3.096;2023-06-24T04:58:07;2.05;;;1.83;;
66163;SDS011;52962;51.088;3.096;2023-06-24T05:03:03;2.38;;;2.17;;
66163;SDS011;52962;51.088;3.096;2023-06-24T05:05:33;2.97;;;2.78;;
66163;SDS011;52962;51.088;3.096;2023-06-24T05:08:02;2.15;;;2.03;;
66163;SDS011;52962;51.088;3.096;2023-06-24T05:10:30;3.00;;;2.75;;
66163;SDS011;52962;51.088;3.096;2023-06-24T05:12:59;2.38;;;2.00;;
66163;SDS011;52962;51.088;3.096;2023-06-24T05:15:27;5.25;;;2.17;;
66163;SDS011;52962;51.088;3.096;2023-06-24T05:17:55;3.70;;;2.78;;
66163;SDS011;52962;51.088;3.096;2023-06-24T05:20:24;2.25;;;2.13;;
66163;SDS011;52962;51.088;3.096;2023-06-24T05:22:54;2.75;;;2.55;;
66163;SDS011;52962;51.088;3.096;2023-06-24T05:25:23;2.60;;;2.05;;
66163;SDS011;52962;51.088;3.096;2023-06-24T05:30:18;2.85;;;2.35;;
66163;SDS011;52962;51.088;3.096;2023-06-24T05:32:46;2.05;;;1.75;;
66163;SDS011;52962;51.088;3.096;2023-06-24T05:35:15;3.45;;;2.20;;
66163;SDS011;52962;51.088;3.096;2023-06-24T05:37:43;4.75;;;2.65;;
66163;SDS011;52962;51.088;3.096;2023-06-24T05:42:41;2.17;;;2.00;;
66163;SDS011;52962;51.088;3.096;2023-06-24T05:45:09;3.28;;;2.65;;
66163;SDS011;52962;51.088;3.096;2023-06-24T05:47:37;4.22;;;2.88;;
66163;SDS011;52962;51.088;3.096;2023-06-24T05:50:06;3.13;;;2.90;;
66163;SDS011;52962;51.088;3.096;2023-06-24T05:52:34;3.50;;;3.13;;
66163;SDS011;52962;51.088;3.096;2023-06-24T05:55:03;3.15;;;2.85;;
66163;SDS011;52962;51.088;3.096;2023-06-24T05:57:33;3.38;;;3.10;;
66163;SDS011;52962;51.088;3.096;2023-06-24T06:00:01;3.78;;;3.15;;
66163;SDS011;52962;51.088;3.096;2023-06-24T06:02:37;3.10;;;2.88;;
66163;SDS011;52962;51.088;3.096;2023-06-24T06:05:06;3.20;;;2.83;;
66163;SDS011;52962;51.088;3.096;2023-06-24T06:07:35;3.70;;;3.40;;
66163;SDS011;52962;51.088;3.096;2023-06-24T06:10:06;2.97;;;2.70;;
66163;SDS011;52962;51.088;3.096;2023-06-24T06:12:36;7.07;;;3.05;;
66163;SDS011;52962;51.088;3.096;2023-06-24T06:15:05;4.07;;;3.67;;
66163;SDS011;52962;51.088;3.096;2023-06-24T06:17:34;4.05;;;3.50;;
66163;SDS011;52962;51.088;3.096;2023-06-24T06:20:03;4.03;;;3.63;;
66163;SDS011;52962;51.088;3.096;2023-06-24T06:22:32;3.03;;;2.83;;
66163;SDS011;52962;51.088;3.096;2023-06-24T06:25:04;3.10;;;2.80;;
66163;SDS011;52962;51.088;3.096;2023-06-24T06:27:33;3.80;;;3.47;;
66163;SDS011;52962;51.088;3.096;2023-06-24T06:30:06;6.63;;;4.03;;
66163;SDS011;52962;51.088;3.096;2023-06-24T06:32:35;4.45;;;4.05;;
66163;SDS011;52962;51.088;3.096;2023-06-24T06:35:03;4.40;;;3.80;;
66163;SDS011;52962;51.088;3.096;2023-06-24T06:37:32;4.60;;;4.20;;
66163;SDS011;52962;51.088;3.096;2023-06-24T06:42:28;3.28;;;3.05;;
66163;SDS011;52962;51.088;3.096;2023-06-24T06:44:57;3.22;;;2.92;;
66163;SDS011;52962;51.088;3.096;2023-06-24T06:47:27;4.40;;;3.95;;
66163;SDS011;52962;51.088;3.096;2023-06-24T06:49:55;3.00;;;2.70;;
66163;SDS011;52962;51.088;3.096;2023-06-24T06:52:24;4.53;;;3.65;;
66163;SDS011;52962;51.088;3.096;2023-06-24T06:54:52;4.38;;;3.95;;
66163;SDS011;52962;51.088;3.096;2023-06-24T06:57:20;4.18;;;3.78;;
66163;SDS011;52962;51.088;3.096;2023-06-24T06:59:49;4.38;;;3.97;;
66163;SDS011;52962;51.088;3.096;2023-06-24T07:02:17;5.25;;;4.50;;
66163;SDS011;52962;51.088;3.096;2023-06-24T07:04:47;4.32;;;4.03;;
66163;SDS011;52962;51.088;3.096;2023-06-24T07:07:17;5.07;;;4.32;;
66163;SDS011;52962;51.088;3.096;2023-06-24T07:09:45;3.90;;;3.50;;
66163;SDS011;52962;51.088;3.096;2023-06-24T07:12:14;5.63;;;3.97;;
66163;SDS011;52962;51.088;3.096;2023-06-24T07:14:42;4.43;;;4.03;;
66163;SDS011;52962;51.088;3.096;2023-06-24T07:17:11;4.22;;;3.85;;
66163;SDS011;52962;51.088;3.096;2023-06-24T07:19:39;4.55;;;3.92;;
66163;SDS011;52962;51.088;3.096;2023-06-24T07:22:08;4.13;;;3.65;;
66163;SDS011;52962;51.088;3.096;2023-06-24T07:24:36;4.68;;;3.92;;
66163;SDS011;52962;51.088;3.096;2023-06-24T07:27:05;8.38;;;4.38;;
66163;SDS011;52962;51.088;3.096;2023-06-24T07:29:33;4.07;;;3.67;;
66163;SDS011;52962;51.088;3.096;2023-06-24T07:32:02;8.85;;;4.60;;
66163;SDS011;52962;51.088;3.096;2023-06-24T07:34:30;6.28;;;4.85;;
66163;SDS011;52962;51.088;3.096;2023-06-24T07:36:59;4.35;;;4.05;;
66163;SDS011;52962;51.088;3.096;2023-06-24T07:39:46;4.78;;;4.18;;
66163;SDS011;52962;51.088;3.096;2023-06-24T07:42:14;4.55;;;4.15;;
66163;SDS011;52962;51.088;3.096;2023-06-24T07:44:45;4.60;;;4.10;;
66163;SDS011;52962;51.088;3.096;2023-06-24T07:47:14;5.07;;;4.68;;
66163;SDS011;52962;51.088;3.096;2023-06-24T07:49:44;5.40;;;4.22;;
66163;SDS011;52962;51.088;3.096;2023-06-24T07:52:12;7.63;;;4.60;;
66163;SDS011;52962;51.088;3.096;2023-06-24T07:54:40;5.50;;;5.00;;
66163;SDS011;52962;51.088;3.096;2023-06-24T07:57:10;13.70;;;6.38;;
66163;SDS011;52962;51.088;3.096;2023-06-24T07:59:38;8.38;;;6.18;;
66163;SDS011;52962;51.088;3.096;2023-06-24T08:02:06;7.40;;;5.32;;
66163;SDS011;52962;51.088;3.096;2023-06-24T08:04:35;6.05;;;5.55;;
66163;SDS011;52962;51.088;3.096;2023-06-24T08:07:04;7.28;;;5.18;;
66163;SDS011;52962;51.088;3.096;2023-06-24T08:09:33;5.57;;;5.00;;
66163;SDS011;52962;51.088;3.096;2023-06-24T08:12:01;5.03;;;4.53;;
66163;SDS011;52962;51.088;3.096;2023-06-24T08:14:31;14.57;;;9.50;;
66163;SDS011;52962;51.088;3.096;2023-06-24T08:16:59;7.38;;;5.00;;
66163;SDS011;52962;51.088;3.096;2023-06-24T08:19:27;6.05;;;5.45;;
66163;SDS011;52962;51.088;3.096;2023-06-24T08:21:56;5.45;;;5.05;;
66163;SDS011;52962;51.088;3.096;2023-06-24T08:24:24;5.93;;;5.43;;
66163;SDS011;52962;51.088;3.096;2023-06-24T08:26:52;5.20;;;4.80;;
66163;SDS011;52962;51.088;3.096;2023-06-24T08:29:20;5.45;;;4.93;;
66163;SDS011;52962;51.088;3.096;2023-06-24T08:31:50;5.18;;;4.78;;
66163;SDS011;52962;51.088;3.096;2023-06-24T08:34:18;6.18;;;5.45;;
66163;SDS011;52962;51.088;3.096;2023-06-24T08:36:46;6.15;;;5.38;;
66163;SDS011;52962;51.088;3.096;2023-06-24T08:39:15;8.77;;;6.45;;
66163;SDS011;52962;51.088;3.096;2023-06-24T08:41:43;5.10;;;4.70;;
66163;SDS011;52962;51.088;3.096;2023-06-24T08:44:11;5.15;;;4.78;;
66163;SDS011;52962;51.088;3.096;2023-06-24T08:46:39;5.10;;;4.70;;
66163;SDS011;52962;51.088;3.096;2023-06-24T08:49:12;6.65;;;5.97;;
66163;SDS011;52962;51.088;3.096;2023-06-24T08:51:53;5.68;;;5.13;;
66163;SDS011;52962;51.088;3.096;2023-06-24T08:54:26;6.32;;;5.72;;
66163;SDS011;52962;51.088;3.096;2023-06-24T08:56:54;6.28;;;5.78;;
66163;SDS011;52962;51.088;3.096;2023-06-24T08:59:23;5.32;;;4.78;;
66163;SDS011;52962;51.088;3.096;2023-06-24T09:01:51;5.97;;;5.47;;
66163;SDS011;52962;51.088;3.096;2023-06-24T09:04:21;6.15;;;5.63;;
66163;SDS011;52962;51.088;3.096;2023-06-24T09:06:49;6.65;;;6.05;;
66163;SDS011;52962;51.088;3.096;2023-06-24T09:09:18;6.05;;;5.55;;
66163;SDS011;52962;51.088;3.096;2023-06-24T09:11:53;5.38;;;4.88;;
66163;SDS011;52962;51.088;3.096;2023-06-24T09:14:22;5.32;;;4.88;;
66163;SDS011;52962;51.088;3.096;2023-06-24T09:16:52;5.88;;;5.40;;
66163;SDS011;52962;51.088;3.096;2023-06-24T09:19:23;5.57;;;5.15;;
66163;SDS011;52962;51.088;3.096;2023-06-24T09:21:51;6.30;;;5.70;;
66163;SDS011;52962;51.088;3.096;2023-06-24T09:24:19;5.90;;;5.35;;
66163;SDS011;52962;51.088;3.096;2023-06-24T09:26:47;6.53;;;5.93;;
66163;SDS011;52962;51.088;3.096;2023-06-24T09:29:16;5.80;;;5.30;;
66163;SDS011;52962;51.088;3.096;2023-06-24T09:31:47;4.65;;;4.35;;
66163;SDS011;52962;51.088;3.096;2023-06-24T09:34:16;5.45;;;4.95;;
66163;SDS011;52962;51.088;3.096;2023-06-24T09:36:50;5.65;;;5.15;;
66163;SDS011;52962;51.088;3.096;2023-06-24T09:39:19;6.38;;;5.78;;
66163;SDS011;52962;51.088;3.096;2023-06-24T09:41:56;6.22;;;5.63;;
66163;SDS011;52962;51.088;3.096;2023-06-24T09:44:25;5.30;;;4.85;;
66163;SDS011;52962;51.088;3.096;2023-06-24T09:46:54;6.22;;;5.40;;
66163;SDS011;52962;51.088;3.096;2023-06-24T09:49:23;6.60;;;5.75;;
66163;SDS011;52962;51.088;3.096;2023-06-24T09:51:55;4.95;;;4.40;;
66163;SDS011;52962;51.088;3.096;2023-06-24T09:54:26;6.00;;;5.50;;
66163;SDS011;52962;51.088;3.096;2023-06-24T09:57:01;5.28;;;4.88;;
66163;SDS011;52962;51.088;3.096;2023-06-24T09:59:31;5.07;;;4.68;;
66163;SDS011;52962;51.088;3.096;2023-06-24T10:02:00;5.75;;;5.28;;
66163;SDS011;52962;51.088;3.096;2023-06-24T10:04:31;5.18;;;4.70;;
66163;SDS011;52962;51.088;3.096;2023-06-24T10:07:01;5.82;;;5.43;;
66163;SDS011;52962;51.088;3.096;2023-06-24T10:09:30;5.03;;;4.60;;
66163;SDS011;52962;51.088;3.096;2023-06-24T10:11:59;4.57;;;4.18;;
66163;SDS011;52962;51.088;3.096;2023-06-24T10:14:27;4.68;;;4.38;;
66163;SDS011;52962;51.088;3.096;2023-06-24T10:17:00;5.40;;;4.90;;
66163;SDS011;52962;51.088;3.096;2023-06-24T10:19:30;6.00;;;4.50;;
66163;SDS011;52962;51.088;3.096;2023-06-24T10:22:08;4.88;;;4.38;;
66163;SDS011;52962;51.088;3.096;2023-06-24T10:24:38;4.30;;;3.92;;
66163;SDS011;52962;51.088;3.096;2023-06-24T10:27:09;4.82;;;4.43;;
66163;SDS011;52962;51.088;3.096;2023-06-24T10:29:44;4.68;;;3.78;;
66163;SDS011;52962;51.088;3.096;2023-06-24T10:32:13;4.82;;;4.15;;
66163;SDS011;52962;51.088;3.096;2023-06-24T10:34:42;5.38;;;4.13;;
66163;SDS011;52962;51.088;3.096;2023-06-24T10:37:14;5.13;;;4.72;;
66163;SDS011;52962;51.088;3.096;2023-06-24T10:39:47;6.20;;;4.18;;
66163;SDS011;52962;51.088;3.096;2023-06-24T10:42:25;4.10;;;3.80;;
66163;SDS011;52962;51.088;3.096;2023-06-24T10:45:01;3.88;;;3.58;;
66163;SDS011;52962;51.088;3.096;2023-06-24T10:47:41;5.78;;;3.25;;
66163;SDS011;52962;51.088;3.096;2023-06-24T10:50:11;2.97;;;2.75;;
66163;SDS011;52962;51.088;3.096;2023-06-24T10:52:42;3.70;;;3.15;;
66163;SDS011;52962;51.088;3.096;2023-06-24T10:55:13;3.03;;;2.83;;
66163;SDS011;52962;51.088;3.096;2023-06-24T10:57:43;3.28;;;3.08;;
66163;SDS011;52962;51.088;3.096;2023-06-24T11:00:12;3.50;;;3.20;;
66163;SDS011;52962;51.088;3.096;2023-06-24T11:02:42;3.42;;;2.92;;
66163;SDS011;52962;51.088;3.096;2023-06-24T11:05:12;4.15;;;3.83;;
66163;SDS011;52962;51.088;3.096;2023-06-24T11:07:41;3.50;;;3.20;;
66163;SDS011;52962;51.088;3.096;2023-06-24T11:10:10;2.90;;;2.38;;
66163;SDS011;52962;51.088;3.096;2023-06-24T11:12:40;2.80;;;2.30;;
66163;SDS011;52962;51.088;3.096;2023-06-24T11:15:10;2.50;;;2.30;;
66163;SDS011;52962;51.088;3.096;2023-06-24T11:17:40;2.55;;;2.35;;
66163;SDS011;52962;51.088;3.096;2023-06-24T11:20:09;2.95;;;2.58;;
66163;SDS011;52962;51.088;3.096;2023-06-24T11:22:39;2.53;;;2.42;;
66163;SDS011;52962;51.088;3.096;2023-06-24T11:25:15;3.00;;;2.65;;
66163;SDS011;52962;51.088;3.096;2023-06-24T11:27:44;5.72;;;2.28;;
66163;SDS011;52962;51.088;3.096;2023-06-24T11:30:13;2.28;;;2.17;;
66163;SDS011;52962;51.088;3.096;2023-06-24T11:32:42;2.17;;;1.98;;
66163;SDS011;52962;51.088;3.096;2023-06-24T11:35:12;2.40;;;2.20;;
66163;SDS011;52962;51.088;3.096;2023-06-24T11:37:42;1.83;;;1.73;;
66163;SDS011;52962;51.088;3.096;2023-06-24T11:40:11;2.13;;;1.48;;
66163;SDS011;52962;51.088;3.096;2023-06-24T11:42:44;2.15;;;1.95;;
66163;SDS011;52962;51.088;3.096;2023-06-24T11:45:14;1.63;;;1.52;;
66163;SDS011;52962;51.088;3.096;2023-06-24T11:47:48;1.73;;;1.63;;
66163;SDS011;52962;51.088;3.096;2023-06-24T11:50:16;1.95;;;1.55;;
66163;SDS011;52962;51.088;3.096;2023-06-24T11:52:45;1.70;;;1.60;;
66163;SDS011;52962;51.088;3.096;2023-06-24T11:55:16;2.38;;;2.00;;
66163;SDS011;52962;51.088;3.096;2023-06-24T11:57:53;1.85;;;1.75;;
66163;SDS011;52962;51.088;3.096;2023-06-24T12:00:24;1.90;;;1.80;;
66163;SDS011;52962;51.088;3.096;2023-06-24T12:02:53;2.17;;;2.05;;
66163;SDS011;52962;51.088;3.096;2023-06-24T12:05:22;2.55;;;2.08;;
66163;SDS011;52962;51.088;3.096;2023-06-24T12:07:59;2.15;;;1.95;;
66163;SDS011;52962;51.088;3.096;2023-06-24T12:10:29;1.90;;;1.80;;
66163;SDS011;52962;51.088;3.096;2023-06-24T12:13:01;1.83;;;1.73;;
66163;SDS011;52962;51.088;3.096;2023-06-24T12:15:30;4.47;;;3.58;;
66163;SDS011;52962;51.088;3.096;2023-06-24T12:17:58;4.07;;;3.75;;
66163;SDS011;52962;51.088;3.096;2023-06-24T12:20:26;4.75;;;4.28;;
66163;SDS011;52962;51.088;3.096;2023-06-24T12:22:59;3.60;;;3.30;;
66163;SDS011;52962;51.088;3.096;2023-06-24T12:25:27;4.72;;;4.18;;
66163;SDS011;52962;51.088;3.096;2023-06-24T12:27:56;3.75;;;3.45;;
66163;SDS011;52962;51.088;3.096;2023-06-24T12:30:27;4.53;;;4.07;;
66163;SDS011;52962;51.088;3.096;2023-06-24T12:32:55;4.85;;;4.45;;
66163;SDS011;52962;51.088;3.096;2023-06-24T12:35:24;5.38;;;4.88;;
66163;SDS011;52962;51.088;3.096;2023-06-24T12:37:53;5.45;;;5.00;;
66163;SDS011;52962;51.088;3.096;2023-06-24T12:40:21;4.88;;;4.47;;
66163;SDS011;52962;51.088;3.096;2023-06-24T12:42:49;6.30;;;5.15;;
66163;SDS011;52962;51.088;3.096;2023-06-24T12:45:17;5.53;;;5.00;;
66163;SDS011;52962;51.088;3.096;2023-06-24T12:47:47;4.38;;;3.97;;
66163;SDS011;52962;51.088;3.096;2023-06-24T12:50:17;4.43;;;3.88;;
66163;SDS011;52962;51.088;3.096;2023-06-24T12:52:45;14.68;;;5.25;;
66163;SDS011;52962;51.088;3.096;2023-06-24T12:55:13;4.88;;;4.20;;
66163;SDS011;52962;51.088;3.096;2023-06-24T12:57:42;3.90;;;3.35;;
66163;SDS011;52962;51.088;3.096;2023-06-24T13:00:11;4.43;;;4.03;;
66163;SDS011;52962;51.088;3.096;2023-06-24T13:02:40;4.20;;;3.47;;
66163;SDS011;52962;51.088;3.096;2023-06-24T13:05:10;4.07;;;3.58;;
66163;SDS011;52962;51.088;3.096;2023-06-24T13:07:38;4.65;;;3.20;;
66163;SDS011;52962;51.088;3.096;2023-06-24T13:10:07;3.20;;;2.90;;
66163;SDS011;52962;51.088;3.096;2023-06-24T13:12:36;4.47;;;4.10;;
66163;SDS011;52962;51.088;3.096;2023-06-24T13:15:05;4.45;;;3.65;;
66163;SDS011;52962;51.088;3.096;2023-06-24T13:17:36;3.60;;;3.30;;
66163;SDS011;52962;51.088;3.096;2023-06-24T13:20:05;3.03;;;2.83;;
66163;SDS011;52962;51.088;3.096;2023-06-24T13:22:35;3.33;;;3.03;;
66163;SDS011;52962;51.088;3.096;2023-06-24T13:25:05;4.43;;;3.38;;
66163;SDS011;52962;51.088;3.096;2023-06-24T13:27:34;3.67;;;3.10;;
66163;SDS011;52962;51.088;3.096;2023-06-24T13:30:07;3.55;;;3.25;;
66163;SDS011;52962;51.088;3.096;2023-06-24T13:32:36;3.28;;;2.97;;
66163;SDS011;52962;51.088;3.096;2023-06-24T13:35:04;3.42;;;3.13;;
66163;SDS011;52962;51.088;3.096;2023-06-24T13:37:33;3.60;;;3.30;;
66163;SDS011;52962;51.088;3.096;2023-06-24T13:40:03;4.15;;;3.50;;
66163;SDS011;52962;51.088;3.096;2023-06-24T13:42:33;4.20;;;3.80;;
66163;SDS011;52962;51.088;3.096;2023-06-24T13:45:01;4.32;;;3.92;;
66163;SDS011;52962;51.088;3.096;2023-06-24T13:47:30;7.45;;;3.25;;
66163;SDS011;52962;51.088;3.096;2023-06-24T13:49:58;3.85;;;3.50;;
66163;SDS011;52962;51.088;3.096;2023-06-24T13:52:26;3.17;;;2.97;;
66163;SDS011;52962;51.088;3.096;2023-06-24T13:54:54;4.20;;;3.83;;
66163;SDS011;52962;51.088;3.096;2023-06-24T13:57:24;6.10;;;3.20;;
66163;SDS011;52962;51.088;3.096;2023-06-24T13:59:52;6.30;;;2.88;;
66163;SDS011;52962;51.088;3.096;2023-06-24T14:02:20;2.97;;;2.67;;
66163;SDS011;52962;51.088;3.096;2023-06-24T14:04:49;2.75;;;2.38;;
66163;SDS011;52962;51.088;3.096;2023-06-24T14:07:17;3.00;;;2.42;;
66163;SDS011;52962;51.088;3.096;2023-06-24T14:09:45;4.25;;;3.47;;
66163;SDS011;52962;51.088;3.096;2023-06-24T14:12:14;4.00;;;2.75;;
66163;SDS011;52962;51.088;3.096;2023-06-24T14:14:43;4.57;;;3.28;;
66163;SDS011;52962;51.088;3.096;2023-06-24T14:17:11;2.95;;;2.75;;
66163;SDS011;52962;51.088;3.096;2023-06-24T14:19:40;4.50;;;2.97;;
66163;SDS011;52962;51.088;3.096;2023-06-24T14:22:08;5.38;;;3.10;;
66163;SDS011;52962;51.088;3.096;2023-06-24T14:24:36;8.68;;;2.45;;
66163;SDS011;52962;51.088;3.096;2023-06-24T14:27:05;2.45;;;2.35;;
66163;SDS011;52962;51.088;3.096;2023-06-24T14:29:34;4.47;;;3.88;;
66163;SDS011;52962;51.088;3.096;2023-06-24T14:32:04;2.53;;;2.33;;
66163;SDS011;52962;51.088;3.096;2023-06-24T14:34:32;2.63;;;2.40;;
66163;SDS011;52962;51.088;3.096;2023-06-24T14:37:01;1.88;;;1.77;;
66163;SDS011;52962;51.088;3.096;2023-06-24T14:39:29;3.50;;;2.75;;
66163;SDS011;52962;51.088;3.096;2023-06-24T14:41:57;2.33;;;2.13;;
66163;SDS011;52962;51.088;3.096;2023-06-24T14:44:25;3.55;;;3.25;;
66163;SDS011;52962;51.088;3.096;2023-06-24T14:46:53;4.00;;;2.70;;
66163;SDS011;52962;51.088;3.096;2023-06-24T14:49:23;2.47;;;2.28;;
66163;SDS011;52962;51.088;3.096;2023-06-24T14:51:51;1.70;;;1.60;;
66163;SDS011;52962;51.088;3.096;2023-06-24T14:54:20;4.93;;;3.22;;
66163;SDS011;52962;51.088;3.096;2023-06-24T14:56:48;4.35;;;2.60;;
66163;SDS011;52962;51.088;3.096;2023-06-24T14:59:16;2.58;;;2.38;;
66163;SDS011;52962;51.088;3.096;2023-06-24T15:01:44;2.60;;;2.45;;
66163;SDS011;52962;51.088;3.096;2023-06-24T15:04:12;2.33;;;2.03;;
66163;SDS011;52962;51.088;3.096;2023-06-24T15:06:42;3.03;;;2.72;;
66163;SDS011;52962;51.088;3.096;2023-06-24T15:09:10;2.47;;;2.25;;
66163;SDS011;52962;51.088;3.096;2023-06-24T15:11:38;1.85;;;1.75;;
66163;SDS011;52962;51.088;3.096;2023-06-24T15:14:06;1.92;;;1.70;;
66163;SDS011;52962;51.088;3.096;2023-06-24T15:16:34;3.85;;;2.10;;
66163;SDS011;52962;51.088;3.096;2023-06-24T15:19:02;1.63;;;1.52;;
66163;SDS011;52962;51.088;3.096;2023-06-24T15:21:31;2.85;;;2.30;;
66163;SDS011;52962;51.088;3.096;2023-06-24T15:24:04;2.58;;;1.95;;
66163;SDS011;52962;51.088;3.096;2023-06-24T15:26:33;3.05;;;2.15;;
66163;SDS011;52962;51.088;3.096;2023-06-24T15:29:01;3.55;;;2.47;;
66163;SDS011;52962;51.088;3.096;2023-06-24T15:31:29;2.40;;;2.17;;
66163;SDS011;52962;51.088;3.096;2023-06-24T15:33:58;2.97;;;2.35;;
66163;SDS011;52962;51.088;3.096;2023-06-24T15:36:26;2.45;;;2.25;;
66163;SDS011;52962;51.088;3.096;2023-06-24T15:38:55;3.75;;;2.63;;